createdAt,value
2023-01-26T00:01:17.125Z,0.60
2023-01-26T00:03:43.782Z,0.50
2023-01-26T00:06:13.258Z,0.50
2023-01-26T00:08:41.592Z,0.40
2023-01-26T00:11:10.199Z,0.50
2023-01-26T00:13:37.539Z,0.40
2023-01-26T00:16:04.893Z,0.40
2023-01-26T00:18:31.835Z,0.40
2023-01-26T00:21:00.740Z,0.40
2023-01-26T00:23:29.188Z,0.30
2023-01-26T00:25:56.090Z,0.30
2023-01-26T00:28:22.689Z,0.30
2023-01-26T00:30:49.535Z,0.30
2023-01-26T00:33:16.511Z,0.30
2023-01-26T00:35:43.367Z,0.30
2023-01-26T00:38:11.273Z,0.30
2023-01-26T00:40:38.460Z,0.30
2023-01-26T00:43:05.173Z,0.30
2023-01-26T00:45:31.793Z,0.20
2023-01-26T00:47:58.565Z,0.30
2023-01-26T00:50:25.107Z,0.30
2023-01-26T00:52:51.689Z,0.30
2023-01-26T00:55:18.207Z,0.30
2023-01-26T00:57:44.809Z,0.30
2023-01-26T01:00:12.228Z,0.30
2023-01-26T01:02:39.020Z,0.60
2023-01-26T01:05:05.778Z,0.70
2023-01-26T01:07:32.357Z,0.60
2023-01-26T01:09:58.941Z,0.50
2023-01-26T01:12:25.777Z,0.40
2023-01-26T01:14:52.393Z,0.40
2023-01-26T01:17:18.982Z,0.40
2023-01-26T01:19:45.563Z,0.30
2023-01-26T01:22:12.103Z,0.40
2023-01-26T01:24:38.718Z,0.30
2023-01-26T01:27:05.290Z,0.40
2023-01-26T01:29:31.825Z,0.40
2023-01-26T01:31:58.954Z,0.40
2023-01-26T01:34:25.575Z,0.30
2023-01-26T01:36:52.133Z,0.20
2023-01-26T01:39:18.751Z,0.30
2023-01-26T01:41:45.341Z,0.30
2023-01-26T01:44:15.044Z,0.30
2023-01-26T01:46:46.463Z,0.30
2023-01-26T01:49:36.353Z,0.30
2023-01-26T01:52:22.230Z,0.40
2023-01-26T01:54:53.975Z,0.30
2023-01-26T01:57:25.871Z,0.30
2023-01-26T01:59:59.947Z,0.30
2023-01-26T02:02:26.755Z,0.30
2023-01-26T02:04:57.770Z,0.30
2023-01-26T02:07:24.522Z,0.30
2023-01-26T02:09:51.492Z,0.30
2023-01-26T02:12:21.824Z,0.30
2023-01-26T02:14:51.437Z,0.30
2023-01-26T02:17:18.163Z,0.40
2023-01-26T02:19:53.907Z,0.30
2023-01-26T02:22:43.750Z,0.30
2023-01-26T02:25:25.540Z,0.30
2023-01-26T02:27:52.100Z,0.40
2023-01-26T02:30:19.178Z,0.40
2023-01-26T02:32:46.501Z,0.40
2023-01-26T02:35:13.086Z,0.40
2023-01-26T02:37:39.655Z,0.40
2023-01-26T02:40:16.193Z,0.30
2023-01-26T02:42:42.814Z,0.40
2023-01-26T02:45:18.584Z,0.40
2023-01-26T02:47:45.141Z,0.40
2023-01-26T02:50:13.508Z,0.40
2023-01-26T02:52:40.319Z,0.40
2023-01-26T02:55:07.703Z,0.40
2023-01-26T02:57:34.236Z,0.40
2023-01-26T03:00:01.310Z,0.40
2023-01-26T03:02:28.005Z,0.40
2023-01-26T03:04:54.563Z,0.40
2023-01-26T03:07:21.170Z,0.40
2023-01-26T03:09:47.719Z,0.40
2023-01-26T03:12:14.275Z,0.40
2023-01-26T03:14:41.740Z,0.40
2023-01-26T03:17:08.429Z,0.40
2023-01-26T03:19:34.961Z,0.30
2023-01-26T03:22:01.863Z,0.30
2023-01-26T03:24:28.393Z,0.30
2023-01-26T03:26:55.006Z,0.20
2023-01-26T03:29:21.655Z,0.20
2023-01-26T03:31:48.204Z,0.10
2023-01-26T03:34:14.846Z,0.20
2023-01-26T03:36:41.434Z,0.20
2023-01-26T03:39:08.009Z,0.20
2023-01-26T03:41:34.551Z,0.20
2023-01-26T03:44:01.149Z,0.20
2023-01-26T03:46:27.762Z,0.20
2023-01-26T03:48:54.338Z,0.20
2023-01-26T03:51:20.889Z,0.20
2023-01-26T03:53:47.556Z,0.30
2023-01-26T03:56:14.136Z,0.40
2023-01-26T03:58:40.679Z,0.40
2023-01-26T04:01:07.271Z,0.30
2023-01-26T04:03:33.821Z,0.30
2023-01-26T04:06:16.132Z,0.30
2023-01-26T04:08:43.891Z,0.40
2023-01-26T04:11:10.504Z,0.30
2023-01-26T04:13:37.104Z,0.20
2023-01-26T04:16:04.829Z,0.20
2023-01-26T04:18:31.649Z,0.30
2023-01-26T04:20:58.176Z,0.30
2023-01-26T04:23:24.745Z,0.30
2023-01-26T04:25:51.290Z,0.30
2023-01-26T04:28:17.821Z,0.30
2023-01-26T04:30:44.446Z,0.30
2023-01-26T04:33:11.517Z,0.30
2023-01-26T04:35:38.074Z,0.30
2023-01-26T04:38:04.708Z,0.30
2023-01-26T04:40:31.276Z,0.30
2023-01-26T04:42:57.842Z,0.40
2023-01-26T04:45:24.402Z,0.40
2023-01-26T04:47:50.943Z,0.40
2023-01-26T04:50:17.589Z,0.30
2023-01-26T04:52:44.148Z,0.30
2023-01-26T04:55:10.737Z,0.30
2023-01-26T04:57:37.307Z,0.20
2023-01-26T05:00:04.434Z,0.20
2023-01-26T05:02:30.983Z,0.30
2023-01-26T05:04:57.515Z,0.20
2023-01-26T05:07:24.087Z,0.20
2023-01-26T05:09:50.635Z,0.20
2023-01-26T05:12:17.188Z,0.20
2023-01-26T05:14:43.797Z,0.20
2023-01-26T05:17:10.413Z,0.20
2023-01-26T05:19:36.979Z,0.30
2023-01-26T05:22:03.689Z,0.30
2023-01-26T05:24:30.273Z,0.30
2023-01-26T05:26:56.869Z,0.30
2023-01-26T05:29:23.440Z,0.40
2023-01-26T05:31:50.021Z,0.40
2023-01-26T05:34:16.579Z,0.30
2023-01-26T05:36:43.153Z,0.30
2023-01-26T05:39:09.747Z,0.30
2023-01-26T05:41:36.276Z,0.20
2023-01-26T05:44:02.852Z,0.20
2023-01-26T05:46:29.429Z,0.20
2023-01-26T05:48:55.959Z,0.30
2023-01-26T05:51:22.505Z,0.50
2023-01-26T05:53:49.078Z,0.60
2023-01-26T05:56:15.646Z,0.50
2023-01-26T05:58:42.172Z,0.40
2023-01-26T06:01:08.760Z,0.40
2023-01-26T06:03:35.305Z,0.30
2023-01-26T06:06:01.875Z,0.40
2023-01-26T06:08:28.422Z,0.40
2023-01-26T06:10:59.739Z,0.30
2023-01-26T06:13:26.281Z,0.20
2023-01-26T06:15:52.863Z,0.20
2023-01-26T06:18:19.446Z,0.10
2023-01-26T06:20:46.035Z,0.10
2023-01-26T06:23:12.691Z,0.20
2023-01-26T06:25:39.236Z,0.30
2023-01-26T06:28:06.044Z,0.20
2023-01-26T06:30:32.733Z,0.30
2023-01-26T06:33:00.279Z,0.30
2023-01-26T06:35:27.000Z,0.20
2023-01-26T06:37:53.735Z,0.20
2023-01-26T06:40:20.301Z,0.20
2023-01-26T06:42:50.474Z,0.20
2023-01-26T06:45:17.647Z,0.20
2023-01-26T06:47:47.902Z,0.30
2023-01-26T06:50:16.191Z,0.30
2023-01-26T06:52:45.121Z,0.20
2023-01-26T06:55:22.641Z,0.20
2023-01-26T06:57:49.265Z,0.20
2023-01-26T07:00:16.244Z,0.30
2023-01-26T07:02:42.825Z,0.30
2023-01-26T07:05:11.089Z,0.30
2023-01-26T07:07:37.924Z,0.30
2023-01-26T07:10:07.217Z,0.20
2023-01-26T07:12:44.912Z,0.20
2023-01-26T07:15:12.829Z,0.20
2023-01-26T07:17:40.115Z,0.20
2023-01-26T07:20:07.555Z,0.30
2023-01-26T07:22:34.143Z,0.30
2023-01-26T07:25:00.714Z,0.30
2023-01-26T07:27:27.280Z,0.30
2023-01-26T07:29:53.845Z,0.30
2023-01-26T07:32:20.501Z,0.20
2023-01-26T07:34:47.092Z,0.20
2023-01-26T07:37:13.654Z,0.30
2023-01-26T07:39:40.237Z,0.30
2023-01-26T07:42:06.791Z,0.20
2023-01-26T07:44:33.343Z,0.20
2023-01-26T07:46:59.972Z,0.30
2023-01-26T07:49:26.766Z,0.30
2023-01-26T07:51:53.358Z,0.30
2023-01-26T07:54:20.014Z,0.30
2023-01-26T07:56:46.681Z,0.30
2023-01-26T07:59:13.246Z,0.40
2023-01-26T08:01:39.827Z,0.40
2023-01-26T08:04:06.421Z,0.30
2023-01-26T08:06:33.047Z,0.20
2023-01-26T08:08:59.737Z,0.30
2023-01-26T08:11:26.365Z,0.20
2023-01-26T08:13:53.106Z,0.30
2023-01-26T08:16:19.699Z,0.30
2023-01-26T08:18:46.814Z,0.30
2023-01-26T08:21:15.570Z,0.30
2023-01-26T08:23:42.382Z,0.20
2023-01-26T08:26:11.909Z,0.30
2023-01-26T08:28:38.598Z,0.20
2023-01-26T08:31:10.825Z,0.30
2023-01-26T08:33:38.639Z,0.20
2023-01-26T08:36:07.899Z,0.20
2023-01-26T08:38:35.069Z,0.10
2023-01-26T08:41:02.407Z,0.10
2023-01-26T08:43:29.774Z,0.20
2023-01-26T08:45:57.223Z,0.20
2023-01-26T08:48:23.876Z,0.20
2023-01-26T08:50:58.377Z,0.20
2023-01-26T08:53:25.685Z,0.20
2023-01-26T08:55:52.677Z,0.30
2023-01-26T08:58:19.239Z,0.10
2023-01-26T09:00:46.024Z,0.20
2023-01-26T09:03:12.784Z,0.20
2023-01-26T09:05:40.536Z,0.30
2023-01-26T09:08:08.749Z,0.30
2023-01-26T09:10:37.903Z,0.30
2023-01-26T09:13:04.783Z,0.30
2023-01-26T09:15:31.433Z,0.40
2023-01-26T09:18:00.647Z,0.40
2023-01-26T09:20:27.585Z,0.30
2023-01-26T09:22:54.188Z,0.30
2023-01-26T09:25:20.782Z,0.40
2023-01-26T09:27:47.327Z,0.30
2023-01-26T09:30:14.243Z,0.30
2023-01-26T09:32:40.819Z,0.40
2023-01-26T09:35:07.736Z,0.40
2023-01-26T09:37:34.300Z,0.40
2023-01-26T09:40:00.857Z,0.50
2023-01-26T09:42:45.323Z,0.50
2023-01-26T09:45:12.124Z,0.40
2023-01-26T09:48:03.672Z,0.40
2023-01-26T09:50:55.479Z,0.40
2023-01-26T09:53:31.206Z,0.40
2023-01-26T09:55:57.855Z,0.40
2023-01-26T09:58:33.475Z,0.40
2023-01-26T10:01:01.465Z,0.50
2023-01-26T10:03:50.233Z,0.50
2023-01-26T10:06:28.040Z,0.60
2023-01-26T10:09:05.230Z,0.60
2023-01-26T10:11:40.473Z,0.60
2023-01-26T10:14:15.174Z,0.60
2023-01-26T10:16:45.312Z,0.50
2023-01-26T10:19:30.717Z,0.60
2023-01-26T10:22:03.197Z,0.50
2023-01-26T10:24:32.188Z,0.60
2023-01-26T10:26:59.953Z,0.50
2023-01-26T10:29:26.513Z,0.50
2023-01-26T10:31:53.058Z,0.50
2023-01-26T10:34:27.367Z,0.50
2023-01-26T10:37:01.742Z,0.60
2023-01-26T10:39:28.277Z,0.50
2023-01-26T10:41:59.308Z,0.50
2023-01-26T10:44:38.155Z,0.50
2023-01-26T10:47:06.447Z,0.50
2023-01-26T10:49:33.331Z,0.70
2023-01-26T10:52:14.285Z,0.70
2023-01-26T10:54:40.862Z,0.70
2023-01-26T10:57:26.451Z,0.60
2023-01-26T11:00:07.473Z,0.60
2023-01-26T11:02:36.134Z,0.60
2023-01-26T11:05:08.736Z,0.60
2023-01-26T11:07:43.282Z,0.60
2023-01-26T11:10:39.333Z,0.60
2023-01-26T11:13:17.713Z,0.60
2023-01-26T11:15:47.009Z,0.60
2023-01-26T11:18:22.169Z,0.60
2023-01-26T11:21:00.564Z,0.60
2023-01-26T11:23:51.574Z,0.70
2023-01-26T11:26:40.018Z,0.70
2023-01-26T11:29:22.523Z,0.60
2023-01-26T11:32:07.718Z,0.70
2023-01-26T11:34:47.369Z,0.70
2023-01-26T11:37:39.148Z,0.80
2023-01-26T11:40:31.481Z,0.70
2023-01-26T11:43:16.589Z,0.70
2023-01-26T11:45:57.100Z,0.80
2023-01-26T11:49:01.235Z,0.80
2023-01-26T11:52:14.042Z,0.80
2023-01-26T11:54:40.546Z,0.70
2023-01-26T11:57:19.038Z,0.70
2023-01-26T11:59:54.781Z,0.60
2023-01-26T12:02:28.129Z,0.70
2023-01-26T12:04:56.927Z,0.70
2023-01-26T12:07:29.948Z,0.70
2023-01-26T12:09:58.462Z,0.60
2023-01-26T12:12:47.398Z,0.70
2023-01-26T12:15:25.865Z,0.70
2023-01-26T12:18:01.660Z,0.70
2023-01-26T12:20:31.003Z,0.70
2023-01-26T12:23:03.080Z,0.60
2023-01-26T12:25:50.549Z,0.60
2023-01-26T12:28:44.782Z,0.60
2023-01-26T12:31:47.925Z,0.60
2023-01-26T12:34:14.922Z,0.70
2023-01-26T12:37:04.470Z,0.60
2023-01-26T12:39:54.954Z,0.50
2023-01-26T12:43:05.615Z,0.60
2023-01-26T12:45:35.797Z,0.60
2023-01-26T12:48:26.657Z,0.50
2023-01-26T12:51:02.243Z,0.60
2023-01-26T12:53:34.369Z,0.60
2023-01-26T12:56:19.247Z,0.60
2023-01-26T12:58:48.420Z,0.60
2023-01-26T13:01:17.778Z,0.60
2023-01-26T13:04:07.687Z,0.60
2023-01-26T13:06:34.309Z,0.60
2023-01-26T13:09:02.107Z,0.60
2023-01-26T13:11:52.657Z,0.50
2023-01-26T13:14:57.978Z,0.60
2023-01-26T13:17:24.474Z,0.60
2023-01-26T13:19:54.094Z,0.60
2023-01-26T13:22:23.690Z,0.60
2023-01-26T13:24:56.287Z,0.60
2023-01-26T13:27:37.837Z,0.60
2023-01-26T13:30:25.854Z,0.60
2023-01-26T13:33:17.749Z,0.50
2023-01-26T13:35:45.581Z,0.40
2023-01-26T13:38:20.120Z,0.50
2023-01-26T13:40:48.979Z,0.40
2023-01-26T13:43:50.680Z,0.40
2023-01-26T13:46:38.696Z,0.40
2023-01-26T13:49:05.351Z,0.40
2023-01-26T13:51:34.561Z,0.50
2023-01-26T13:54:13.242Z,0.30
2023-01-26T13:56:41.704Z,0.30
2023-01-26T13:59:19.320Z,0.40
2023-01-26T14:01:51.790Z,0.40
2023-01-26T14:04:22.012Z,0.30
2023-01-26T14:07:08.518Z,0.40
2023-01-26T14:09:45.565Z,0.50
2023-01-26T14:12:22.257Z,0.50
2023-01-26T14:15:00.826Z,0.50
2023-01-26T14:17:33.062Z,0.50
2023-01-26T14:20:00.485Z,0.60
2023-01-26T14:22:27.745Z,0.60
2023-01-26T14:24:55.376Z,0.60
2023-01-26T14:27:37.828Z,0.50
2023-01-26T14:30:29.172Z,0.50
2023-01-26T14:33:13.765Z,0.50
2023-01-26T14:35:41.178Z,0.50
2023-01-26T14:38:18.034Z,0.50
2023-01-26T14:40:56.883Z,0.40
2023-01-26T14:43:24.263Z,0.60
2023-01-26T14:45:59.098Z,0.50
2023-01-26T14:48:50.349Z,0.50
2023-01-26T14:51:25.198Z,0.40
2023-01-26T14:53:58.496Z,0.40
2023-01-26T14:56:31.525Z,0.30
2023-01-26T14:58:58.160Z,0.40
2023-01-26T15:01:26.571Z,0.50
2023-01-26T15:03:59.740Z,0.40
2023-01-26T15:06:28.655Z,0.30
2023-01-26T15:09:02.632Z,0.30
2023-01-26T15:11:34.728Z,0.30
2023-01-26T15:14:01.349Z,0.30
2023-01-26T15:16:28.082Z,0.30
2023-01-26T15:19:02.704Z,0.40
2023-01-26T15:21:34.807Z,0.40
2023-01-26T15:24:03.264Z,0.40
2023-01-26T15:26:32.603Z,0.40
2023-01-26T15:29:01.361Z,0.30
2023-01-26T15:31:33.311Z,0.30
2023-01-26T15:34:00.445Z,0.30
2023-01-26T15:36:34.265Z,0.40
2023-01-26T15:39:12.013Z,0.50
2023-01-26T15:41:39.143Z,0.40
2023-01-26T15:44:09.311Z,0.40
2023-01-26T15:46:35.929Z,0.40
2023-01-26T15:49:02.531Z,0.40
2023-01-26T15:51:29.125Z,0.40
2023-01-26T15:53:55.662Z,0.30
2023-01-26T15:56:22.255Z,0.30
2023-01-26T15:58:48.795Z,0.30
2023-01-26T16:01:22.230Z,0.30
2023-01-26T16:03:52.091Z,0.30
2023-01-26T16:06:27.249Z,0.30
2023-01-26T16:08:55.374Z,0.20
2023-01-26T16:11:25.007Z,0.30
2023-01-26T16:14:02.744Z,0.20
2023-01-26T16:16:30.473Z,0.20
2023-01-26T16:18:57.173Z,0.30
2023-01-26T16:21:27.109Z,0.30
2023-01-26T16:23:53.673Z,0.30
2023-01-26T16:26:20.329Z,0.30
2023-01-26T16:28:47.364Z,0.30
2023-01-26T16:31:20.826Z,0.30
2023-01-26T16:33:48.624Z,0.30
2023-01-26T16:36:17.238Z,0.20
2023-01-26T16:38:44.053Z,0.20
2023-01-26T16:41:31.570Z,0.20
2023-01-26T16:44:00.425Z,0.30
2023-01-26T16:46:28.558Z,0.20
2023-01-26T16:48:55.944Z,0.20
2023-01-26T16:51:27.210Z,0.20
2023-01-26T16:53:54.578Z,0.30
2023-01-26T16:56:22.068Z,0.20
2023-01-26T16:58:48.719Z,0.30
2023-01-26T17:01:22.831Z,0.20
2023-01-26T17:03:50.307Z,0.30
2023-01-26T17:06:18.804Z,0.30
2023-01-26T17:08:45.394Z,0.20
2023-01-26T17:11:20.260Z,0.20
2023-01-26T17:13:47.202Z,0.20
2023-01-26T17:16:16.863Z,0.20
2023-01-26T17:18:44.104Z,0.30
2023-01-26T17:21:11.437Z,0.30
2023-01-26T17:23:38.307Z,0.40
2023-01-26T17:26:04.911Z,0.30
2023-01-26T17:28:31.447Z,0.40
2023-01-26T17:31:01.038Z,0.30
2023-01-26T17:33:29.089Z,0.40
2023-01-26T17:36:03.004Z,0.30
2023-01-26T17:38:29.665Z,0.30
2023-01-26T17:40:57.556Z,0.30
2023-01-26T17:43:25.070Z,0.40
2023-01-26T17:45:52.012Z,0.40
2023-01-26T17:48:18.573Z,0.30
2023-01-26T17:50:48.888Z,0.40
2023-01-26T17:53:15.825Z,0.30
2023-01-26T17:55:42.647Z,0.40
2023-01-26T17:58:09.231Z,0.30
2023-01-26T18:00:36.318Z,0.30
2023-01-26T18:03:02.987Z,0.30
2023-01-26T18:05:29.548Z,0.30
2023-01-26T18:07:56.145Z,0.30
2023-01-26T18:10:22.713Z,0.30
2023-01-26T18:12:49.307Z,0.30
2023-01-26T18:15:16.532Z,0.30
2023-01-26T18:17:43.078Z,0.30
2023-01-26T18:20:10.485Z,0.30
2023-01-26T18:22:37.029Z,0.30
2023-01-26T18:25:03.841Z,0.30
2023-01-26T18:27:30.397Z,0.30
2023-01-26T18:29:56.976Z,0.30
2023-01-26T18:32:23.554Z,0.30
2023-01-26T18:34:50.111Z,0.30
2023-01-26T18:37:16.657Z,0.40
2023-01-26T18:39:43.209Z,0.40
2023-01-26T18:42:09.747Z,0.40
2023-01-26T18:44:36.348Z,0.30
2023-01-26T18:47:02.905Z,0.40
2023-01-26T18:49:29.444Z,0.40
2023-01-26T18:51:56.049Z,0.40
2023-01-26T18:54:22.675Z,0.40
2023-01-26T18:56:49.275Z,0.40
2023-01-26T18:59:16.731Z,0.40
2023-01-26T19:01:43.591Z,0.40
2023-01-26T19:04:10.145Z,0.30
2023-01-26T19:06:36.698Z,0.30
2023-01-26T19:09:05.877Z,0.40
2023-01-26T19:11:35.557Z,0.30
2023-01-26T19:14:05.121Z,0.30
2023-01-26T19:16:32.322Z,0.30
2023-01-26T19:18:58.939Z,0.30
2023-01-26T19:21:28.005Z,0.30
2023-01-26T19:23:56.835Z,0.30
2023-01-26T19:26:26.356Z,0.20
2023-01-26T19:28:54.048Z,0.20
2023-01-26T19:31:21.533Z,0.30
2023-01-26T19:33:57.337Z,0.30
2023-01-26T19:36:24.852Z,0.20
2023-01-26T19:38:51.596Z,0.30
2023-01-26T19:41:19.360Z,0.30
2023-01-26T19:43:46.295Z,0.30
2023-01-26T19:46:14.146Z,0.20
2023-01-26T19:48:41.257Z,0.20
2023-01-26T19:51:12.164Z,0.10
2023-01-26T19:53:41.806Z,0.10
2023-01-26T19:56:14.411Z,0.20
2023-01-26T19:58:41.067Z,0.20
2023-01-26T20:01:10.515Z,0.20
2023-01-26T20:03:38.097Z,0.20
2023-01-26T20:06:06.029Z,0.20
2023-01-26T20:08:33.239Z,0.10
2023-01-26T20:11:07.531Z,0.10
2023-01-26T20:13:35.141Z,0.20
2023-01-26T20:16:03.257Z,0.20
2023-01-26T20:18:30.113Z,0.20
2023-01-26T20:20:58.282Z,0.20
2023-01-26T20:23:27.080Z,0.10
2023-01-26T20:26:01.513Z,0.20
2023-01-26T20:28:28.046Z,0.10
2023-01-26T20:30:54.653Z,0.10
2023-01-26T20:33:21.197Z,0.00
2023-01-26T20:35:47.746Z,0.00
2023-01-26T20:38:14.294Z,0.10
2023-01-26T20:40:40.848Z,0.10
2023-01-26T20:43:07.429Z,0.10
2023-01-26T20:45:34.073Z,0.10
2023-01-26T20:48:00.649Z,0.10
2023-01-26T20:50:27.257Z,0.20
2023-01-26T20:52:53.835Z,0.20
2023-01-26T20:55:20.410Z,0.20
2023-01-26T20:57:47.003Z,0.10
2023-01-26T21:00:14.319Z,0.10
2023-01-26T21:02:41.173Z,0.10
2023-01-26T21:05:08.222Z,0.10
2023-01-26T21:07:34.762Z,0.10
2023-01-26T21:10:01.329Z,0.10
2023-01-26T21:12:28.042Z,0.10
2023-01-26T21:14:54.565Z,0.10
2023-01-26T21:17:21.158Z,0.10
2023-01-26T21:19:47.740Z,0.10
2023-01-26T21:22:14.297Z,0.10
2023-01-26T21:24:40.840Z,0.10
2023-01-26T21:27:07.510Z,0.10
2023-01-26T21:29:34.034Z,0.00
2023-01-26T21:32:00.591Z,0.10
2023-01-26T21:34:27.181Z,0.10
2023-01-26T21:36:53.716Z,0.10
2023-01-26T21:39:22.146Z,0.10
2023-01-26T21:41:48.799Z,0.10
2023-01-26T21:44:29.386Z,0.10
2023-01-26T21:47:03.887Z,0.10
2023-01-26T21:49:30.651Z,0.10
2023-01-26T21:51:57.630Z,0.10
2023-01-26T21:54:24.274Z,0.20
2023-01-26T21:56:50.895Z,0.20
2023-01-26T21:59:19.258Z,0.10
2023-01-26T22:01:51.602Z,0.10
2023-01-26T22:04:26.328Z,0.10
2023-01-26T22:06:52.894Z,0.10
2023-01-26T22:09:19.583Z,0.10
2023-01-26T22:11:46.137Z,0.10
2023-01-26T22:14:18.299Z,0.00
2023-01-26T22:16:45.165Z,0.20
2023-01-26T22:19:12.541Z,0.20
2023-01-26T22:21:39.771Z,0.10
2023-01-26T22:24:09.946Z,0.20
2023-01-26T22:26:38.206Z,0.00
2023-01-26T22:29:05.191Z,0.00
2023-01-26T22:31:32.510Z,0.00
2023-01-26T22:34:00.497Z,-0.10
2023-01-26T22:36:27.912Z,0.00
2023-01-26T22:38:54.444Z,0.00
2023-01-26T22:41:27.118Z,0.00
2023-01-26T22:43:56.503Z,0.00
2023-01-26T22:46:24.752Z,0.00
2023-01-26T22:48:51.701Z,0.10
2023-01-26T22:51:19.581Z,0.00
2023-01-26T22:53:48.091Z,0.00
2023-01-26T22:56:14.788Z,0.00
2023-01-26T22:58:56.608Z,-0.10
2023-01-26T23:01:24.705Z,0.00
2023-01-26T23:03:53.043Z,0.00
2023-01-26T23:06:20.074Z,-0.10
2023-01-26T23:08:46.656Z,-0.20
2023-01-26T23:11:19.492Z,-0.30
2023-01-26T23:13:48.120Z,-0.20
2023-01-26T23:16:14.967Z,-0.30
2023-01-26T23:18:42.202Z,-0.30
2023-01-26T23:21:09.776Z,-0.30
2023-01-26T23:23:38.555Z,-0.40
2023-01-26T23:26:05.270Z,-0.30
2023-01-26T23:28:34.762Z,-0.50
2023-01-26T23:31:01.611Z,-0.30
2023-01-26T23:33:31.249Z,-0.30
2023-01-26T23:35:58.574Z,-0.20
2023-01-26T23:38:26.691Z,-0.30
2023-01-26T23:40:53.889Z,-0.40
2023-01-26T23:43:21.432Z,-0.40
2023-01-26T23:45:49.408Z,-0.30
2023-01-26T23:48:16.577Z,-0.20
2023-01-26T23:50:43.232Z,-0.30
2023-01-26T23:53:10.435Z,-0.40
2023-01-26T23:55:43.017Z,-0.30
2023-01-26T23:58:10.747Z,-0.40
